sensor_id;sensor_type;location;lat;lon;timestamp;pressure;altitude;pressure_sealevel;temperature;humidity
75425;BME280;64007;50.632;13.700;2023-02-13T00:01:37;100081.94;;;4.15;100.00
75425;BME280;64007;50.632;13.700;2023-02-13T00:04:03;100084.50;;;4.18;100.00
75425;BME280;64007;50.632;13.700;2023-02-13T00:06:29;100089.75;;;4.18;100.00
75425;BME280;64007;50.632;13.700;2023-02-13T00:08:55;100084.59;;;4.14;100.00
75425;BME280;64007;50.632;13.700;2023-02-13T00:11:20;100082.88;;;4.13;100.00
75425;BME280;64007;50.632;13.700;2023-02-13T00:13:46;100087.28;;;4.12;100.00
75425;BME280;64007;50.632;13.700;2023-02-13T00:16:12;100080.28;;;4.11;100.00
75425;BME280;64007;50.632;13.700;2023-02-13T00:18:38;100083.75;;;4.13;100.00
75425;BME280;64007;50.632;13.700;2023-02-13T00:21:07;100081.88;;;4.18;100.00
75425;BME280;64007;50.632;13.700;2023-02-13T00:23:34;100074.88;;;4.17;100.00
75425;BME280;64007;50.632;13.700;2023-02-13T00:26:05;100081.09;;;4.13;100.00
75425;BME280;64007;50.632;13.700;2023-02-13T00:28:31;100078.59;;;4.07;100.00
75425;BME280;64007;50.632;13.700;2023-02-13T00:31:11;100078.59;;;4.07;100.00
75425;BME280;64007;50.632;13.700;2023-02-13T00:33:38;100071.63;;;4.06;100.00
75425;BME280;64007;50.632;13.700;2023-02-13T00:36:15;100082.19;;;4.04;100.00
75425;BME280;64007;50.632;13.700;2023-02-13T00:38:42;100084.84;;;4.03;100.00
75425;BME280;64007;50.632;13.700;2023-02-13T00:41:09;100083.16;;;4.00;100.00
75425;BME280;64007;50.632;13.700;2023-02-13T00:43:35;100080.44;;;4.03;100.00
75425;BME280;64007;50.632;13.700;2023-02-13T00:46:02;100081.31;;;4.04;100.00
75425;BME280;64007;50.632;13.700;2023-02-13T00:48:30;100085.59;;;4.08;100.00
75425;BME280;64007;50.632;13.700;2023-02-13T00:50:56;100079.50;;;4.06;100.00
75425;BME280;64007;50.632;13.700;2023-02-13T00:53:23;100077.72;;;4.08;100.00
75425;BME280;64007;50.632;13.700;2023-02-13T00:55:49;100076.59;;;4.18;100.00
75425;BME280;64007;50.632;13.700;2023-02-13T00:58:16;100082.84;;;4.14;100.00
75425;BME280;64007;50.632;13.700;2023-02-13T01:00:42;100082.03;;;4.11;100.00
75425;BME280;64007;50.632;13.700;2023-02-13T01:03:09;100082.97;;;4.08;100.00
75425;BME280;64007;50.632;13.700;2023-02-13T01:05:34;100083.59;;;4.19;100.00
75425;BME280;64007;50.632;13.700;2023-02-13T01:08:00;100083.75;;;4.13;100.00
75425;BME280;64007;50.632;13.700;2023-02-13T01:10:26;100085.69;;;4.05;100.00
75425;BME280;64007;50.632;13.700;2023-02-13T01:12:52;100080.41;;;4.05;100.00
75425;BME280;64007;50.632;13.700;2023-02-13T01:15:18;100082.22;;;4.03;100.00
75425;BME280;64007;50.632;13.700;2023-02-13T01:17:44;100075.22;;;4.02;100.00
75425;BME280;64007;50.632;13.700;2023-02-13T01:20:11;100080.41;;;4.05;100.00
75425;BME280;64007;50.632;13.700;2023-02-13T01:22:37;100072.44;;;4.08;100.00
75425;BME280;64007;50.632;13.700;2023-02-13T01:25:04;100072.53;;;4.03;100.00
75425;BME280;64007;50.632;13.700;2023-02-13T01:27:30;100079.63;;;4.00;100.00
75425;BME280;64007;50.632;13.700;2023-02-13T01:29:57;100078.78;;;3.98;100.00
75425;BME280;64007;50.632;13.700;2023-02-13T01:32:23;100070.91;;;3.96;100.00
75425;BME280;64007;50.632;13.700;2023-02-13T01:34:49;100064.00;;;3.92;100.00
75425;BME280;64007;50.632;13.700;2023-02-13T01:37:15;100066.66;;;3.91;100.00
75425;BME280;64007;50.632;13.700;2023-02-13T01:39:41;100071.06;;;4.30;100.00
75425;BME280;64007;50.632;13.700;2023-02-13T01:42:27;100060.19;;;4.07;100.00
75425;BME280;64007;50.632;13.700;2023-02-13T01:44:57;100053.31;;;3.98;100.00
75425;BME280;64007;50.632;13.700;2023-02-13T01:50:16;100061.47;;;3.88;100.00
75425;BME280;64007;50.632;13.700;2023-02-13T01:52:47;100058.00;;;3.86;100.00
75425;BME280;64007;50.632;13.700;2023-02-13T01:55:15;100057.13;;;3.85;100.00
75425;BME280;64007;50.632;13.700;2023-02-13T01:57:43;100055.38;;;3.86;100.00
75425;BME280;64007;50.632;13.700;2023-02-13T02:00:14;100061.50;;;3.86;100.00
75425;BME280;64007;50.632;13.700;2023-02-13T02:02:44;100056.19;;;3.88;100.00
75425;BME280;64007;50.632;13.700;2023-02-13T02:05:18;100050.94;;;3.88;100.00
75425;BME280;64007;50.632;13.700;2023-02-13T02:07:46;100056.25;;;3.85;100.00
75425;BME280;64007;50.632;13.700;2023-02-13T02:10:17;100057.09;;;3.87;100.00
75425;BME280;64007;50.632;13.700;2023-02-13T02:15:12;100053.63;;;3.85;100.00
75425;BME280;64007;50.632;13.700;2023-02-13T02:17:38;100047.59;;;3.80;100.00
75425;BME280;64007;50.632;13.700;2023-02-13T02:20:14;100054.53;;;3.84;100.00
75425;BME280;64007;50.632;13.700;2023-02-13T02:23:00;100063.34;;;3.81;100.00
75425;BME280;64007;50.632;13.700;2023-02-13T02:31:46;100057.28;;;3.77;100.00
75425;BME280;64007;50.632;13.700;2023-02-13T02:40:23;100045.16;;;3.70;100.00
75425;BME280;64007;50.632;13.700;2023-02-13T02:45:55;100044.41;;;3.65;100.00
75425;BME280;64007;50.632;13.700;2023-02-13T02:48:28;100045.25;;;3.66;100.00
75425;BME280;64007;50.632;13.700;2023-02-13T02:51:29;100050.56;;;3.64;100.00
75425;BME280;64007;50.632;13.700;2023-02-13T02:57:02;100030.47;;;3.60;100.00
75425;BME280;64007;50.632;13.700;2023-02-13T02:59:30;100034.03;;;3.56;100.00
75425;BME280;64007;50.632;13.700;2023-02-13T03:02:16;100035.84;;;3.54;100.00
75425;BME280;64007;50.632;13.700;2023-02-13T03:05:02;100041.91;;;3.58;100.00
75425;BME280;64007;50.632;13.700;2023-02-13T03:07:47;100049.81;;;3.56;100.00
75425;BME280;64007;50.632;13.700;2023-02-13T03:10:23;100036.75;;;3.52;100.00
75425;BME280;64007;50.632;13.700;2023-02-13T03:13:30;100040.16;;;3.57;100.00
75425;BME280;64007;50.632;13.700;2023-02-13T03:15:59;100037.66;;;3.51;100.00
75425;BME280;64007;50.632;13.700;2023-02-13T03:18:46;100036.69;;;3.55;100.00
75425;BME280;64007;50.632;13.700;2023-02-13T03:21:56;100035.91;;;3.51;100.00
75425;BME280;64007;50.632;13.700;2023-02-13T03:28:21;100038.25;;;3.66;100.00
75425;BME280;64007;50.632;13.700;2023-02-13T03:34:04;100041.91;;;4.01;100.00
75425;BME280;64007;50.632;13.700;2023-02-13T03:42:36;100038.50;;;3.53;100.00
75425;BME280;64007;50.632;13.700;2023-02-13T03:47:50;100035.97;;;3.48;100.00
75425;BME280;64007;50.632;13.700;2023-02-13T03:50:18;100036.81;;;3.49;100.00
75425;BME280;64007;50.632;13.700;2023-02-13T03:52:54;100032.25;;;3.58;100.00
75425;BME280;64007;50.632;13.700;2023-02-13T03:55:28;100041.09;;;3.54;100.00
75425;BME280;64007;50.632;13.700;2023-02-13T03:58:20;100036.78;;;3.50;100.00
75425;BME280;64007;50.632;13.700;2023-02-13T04:01:09;100046.34;;;3.54;100.00
75425;BME280;64007;50.632;13.700;2023-02-13T04:03:51;100043.66;;;3.57;100.00
75425;BME280;64007;50.632;13.700;2023-02-13T04:06:21;100044.56;;;3.56;100.00
75425;BME280;64007;50.632;13.700;2023-02-13T04:08:48;100044.59;;;3.55;100.00
75425;BME280;64007;50.632;13.700;2023-02-13T04:11:17;100033.09;;;3.59;100.00
75425;BME280;64007;50.632;13.700;2023-02-13T04:13:59;100044.38;;;3.67;100.00
75425;BME280;64007;50.632;13.700;2023-02-13T04:16:38;100042.59;;;3.67;100.00
75425;BME280;64007;50.632;13.700;2023-02-13T04:19:07;100040.09;;;3.61;100.00
75425;BME280;64007;50.632;13.700;2023-02-13T04:21:35;100040.09;;;3.60;100.00
75425;BME280;64007;50.632;13.700;2023-02-13T04:24:02;100043.63;;;3.59;100.00
75425;BME280;64007;50.632;13.700;2023-02-13T04:26:34;100040.19;;;3.55;100.00
75425;BME280;64007;50.632;13.700;2023-02-13T04:29:01;100034.91;;;3.57;100.00
75425;BME280;64007;50.632;13.700;2023-02-13T04:31:26;100050.63;;;3.60;100.00
75425;BME280;64007;50.632;13.700;2023-02-13T04:33:52;100044.53;;;3.58;100.00
75425;BME280;64007;50.632;13.700;2023-02-13T04:36:18;100047.16;;;3.58;100.00
75425;BME280;64007;50.632;13.700;2023-02-13T04:38:43;100051.53;;;3.60;100.00
75425;BME280;64007;50.632;13.700;2023-02-13T04:41:10;100050.63;;;3.60;100.00
75425;BME280;64007;50.632;13.700;2023-02-13T04:43:36;100044.56;;;3.56;100.00
75425;BME280;64007;50.632;13.700;2023-02-13T04:46:02;100052.81;;;3.83;100.00
75425;BME280;64007;50.632;13.700;2023-02-13T04:48:28;100046.00;;;3.72;100.00
75425;BME280;64007;50.632;13.700;2023-02-13T04:50:53;100042.66;;;3.64;100.00
75425;BME280;64007;50.632;13.700;2023-02-13T04:53:19;100043.53;;;3.65;100.00
75425;BME280;64007;50.632;13.700;2023-02-13T04:55:45;100033.88;;;3.65;100.00
75425;BME280;64007;50.632;13.700;2023-02-13T04:58:11;100045.22;;;3.67;100.00
75425;BME280;64007;50.632;13.700;2023-02-13T05:00:36;100039.88;;;3.72;100.00
75425;BME280;64007;50.632;13.700;2023-02-13T05:03:08;100038.94;;;3.74;100.00
75425;BME280;64007;50.632;13.700;2023-02-13T05:05:34;100044.34;;;3.68;100.00
75425;BME280;64007;50.632;13.700;2023-02-13T05:08:00;100046.06;;;3.69;100.00
75425;BME280;64007;50.632;13.700;2023-02-13T05:10:26;100042.59;;;3.67;100.00
75425;BME280;64007;50.632;13.700;2023-02-13T05:12:52;100037.41;;;3.64;100.00
75425;BME280;64007;50.632;13.700;2023-02-13T05:15:18;100043.47;;;3.68;100.00
75425;BME280;64007;50.632;13.700;2023-02-13T05:17:45;100042.63;;;3.66;100.00
75425;BME280;64007;50.632;13.700;2023-02-13T05:20:12;100048.75;;;3.66;100.00
75425;BME280;64007;50.632;13.700;2023-02-13T05:22:45;100054.84;;;3.68;100.00
75425;BME280;64007;50.632;13.700;2023-02-13T05:25:30;100051.00;;;3.85;100.00
75425;BME280;64007;50.632;13.700;2023-02-13T05:27:56;100048.06;;;3.98;100.00
75425;BME280;64007;50.632;13.700;2023-02-13T05:30:21;100048.03;;;4.00;100.00
75425;BME280;64007;50.632;13.700;2023-02-13T05:32:47;100046.53;;;3.88;100.00
75425;BME280;64007;50.632;13.700;2023-02-13T05:35:17;100048.41;;;3.83;100.00
75425;BME280;64007;50.632;13.700;2023-02-13T05:37:43;100049.38;;;3.79;100.00
75425;BME280;64007;50.632;13.700;2023-02-13T05:40:10;100048.22;;;3.91;100.00
75425;BME280;64007;50.632;13.700;2023-02-13T05:42:36;100044.06;;;3.81;100.00
75425;BME280;64007;50.632;13.700;2023-02-13T05:45:02;100038.94;;;3.74;100.00
75425;BME280;64007;50.632;13.700;2023-02-13T05:47:28;100031.09;;;3.73;100.00
75425;BME280;64007;50.632;13.700;2023-02-13T05:49:53;100041.53;;;3.76;100.00
75425;BME280;64007;50.632;13.700;2023-02-13T05:52:19;100046.06;;;3.69;100.00
75425;BME280;64007;50.632;13.700;2023-02-13T05:54:45;100041.72;;;3.68;100.00
75425;BME280;64007;50.632;13.700;2023-02-13T05:57:10;100040.81;;;3.69;100.00
75425;BME280;64007;50.632;13.700;2023-02-13T05:59:36;100037.28;;;3.70;100.00
75425;BME280;64007;50.632;13.700;2023-02-13T06:02:02;100042.56;;;3.69;100.00
75425;BME280;64007;50.632;13.700;2023-02-13T06:04:28;100045.16;;;3.70;100.00
75425;BME280;64007;50.632;13.700;2023-02-13T06:06:53;100040.81;;;3.69;100.00
75425;BME280;64007;50.632;13.700;2023-02-13T06:09:19;100035.47;;;3.72;100.00
75425;BME280;64007;50.632;13.700;2023-02-13T06:11:45;100049.44;;;3.76;100.00
75425;BME280;64007;50.632;13.700;2023-02-13T06:14:11;100038.94;;;3.74;100.00
75425;BME280;64007;50.632;13.700;2023-02-13T06:16:36;100045.03;;;3.76;100.00
75425;BME280;64007;50.632;13.700;2023-02-13T06:19:02;100044.13;;;3.77;100.00
75425;BME280;64007;50.632;13.700;2023-02-13T06:21:28;100044.13;;;3.77;100.00
75425;BME280;64007;50.632;13.700;2023-02-13T06:23:54;100050.28;;;3.78;100.00
75425;BME280;64007;50.632;13.700;2023-02-13T06:26:20;100051.13;;;3.78;100.00
75425;BME280;64007;50.632;13.700;2023-02-13T06:28:45;100058.13;;;3.80;100.00
75425;BME280;64007;50.632;13.700;2023-02-13T06:31:11;100050.31;;;3.76;100.00
75425;BME280;64007;50.632;13.700;2023-02-13T06:33:37;100046.75;;;3.79;100.00
75425;BME280;64007;50.632;13.700;2023-02-13T06:36:03;100058.97;;;3.82;100.00
75425;BME280;64007;50.632;13.700;2023-02-13T06:38:28;100052.91;;;3.78;100.00
75425;BME280;64007;50.632;13.700;2023-02-13T06:40:59;100054.56;;;3.82;100.00
75425;BME280;64007;50.632;13.700;2023-02-13T06:43:26;100051.06;;;3.82;100.00
75425;BME280;64007;50.632;13.700;2023-02-13T06:45:52;100059.78;;;3.84;100.00
75425;BME280;64007;50.632;13.700;2023-02-13T06:48:18;100056.31;;;3.82;100.00
75425;BME280;64007;50.632;13.700;2023-02-13T06:50:44;100062.31;;;3.88;100.00
75425;BME280;64007;50.632;13.700;2023-02-13T06:53:10;100064.84;;;3.93;100.00
75425;BME280;64007;50.632;13.700;2023-02-13T06:55:36;100059.72;;;3.87;100.00
75425;BME280;64007;50.632;13.700;2023-02-13T06:58:04;100070.19;;;3.90;100.00
75425;BME280;64007;50.632;13.700;2023-02-13T07:00:30;100069.28;;;3.91;100.00
75425;BME280;64007;50.632;13.700;2023-02-13T07:03:02;100077.13;;;3.94;100.00
75425;BME280;64007;50.632;13.700;2023-02-13T07:05:28;100078.84;;;3.95;100.00
75425;BME280;64007;50.632;13.700;2023-02-13T07:07:54;100076.09;;;4.02;100.00
75425;BME280;64007;50.632;13.700;2023-02-13T07:10:20;100080.47;;;4.02;100.00
75425;BME280;64007;50.632;13.700;2023-02-13T07:12:45;100077.78;;;4.05;100.00
75425;BME280;64007;50.632;13.700;2023-02-13T07:15:11;100074.25;;;4.06;100.00
75425;BME280;64007;50.632;13.700;2023-02-13T07:17:37;100076.75;;;4.12;100.00
75425;BME280;64007;50.632;13.700;2023-02-13T07:20:04;100079.22;;;4.18;100.00
75425;BME280;64007;50.632;13.700;2023-02-13T07:22:31;100076.47;;;4.24;100.00
75425;BME280;64007;50.632;13.700;2023-02-13T07:24:58;100080.56;;;4.36;100.00
75425;BME280;64007;50.632;13.700;2023-02-13T07:27:24;100067.34;;;4.40;100.00
75425;BME280;64007;50.632;13.700;2023-02-13T07:29:50;100073.34;;;4.46;100.00
75425;BME280;64007;50.632;13.700;2023-02-13T07:32:16;100073.22;;;4.52;100.00
75425;BME280;64007;50.632;13.700;2023-02-13T07:34:42;100075.69;;;4.58;100.00
75425;BME280;64007;50.632;13.700;2023-02-13T07:37:07;100078.19;;;4.64;100.00
75425;BME280;64007;50.632;13.700;2023-02-13T07:39:33;100087.44;;;4.80;100.00
75425;BME280;64007;50.632;13.700;2023-02-13T07:41:59;100089.13;;;4.84;100.00
75425;BME280;64007;50.632;13.700;2023-02-13T07:44:25;100092.50;;;4.89;100.00
75425;BME280;64007;50.632;13.700;2023-02-13T07:46:50;100086.09;;;4.99;100.00
75425;BME280;64007;50.632;13.700;2023-02-13T07:49:16;100087.63;;;5.08;100.00
75425;BME280;64007;50.632;13.700;2023-02-13T07:51:41;100082.97;;;5.18;100.00
75425;BME280;64007;50.632;13.700;2023-02-13T07:54:07;100087.16;;;5.26;100.00
75425;BME280;64007;50.632;13.700;2023-02-13T07:56:33;100084.28;;;5.35;100.00
75425;BME280;64007;50.632;13.700;2023-02-13T07:58:58;100083.94;;;5.48;100.00
75425;BME280;64007;50.632;13.700;2023-02-13T08:01:24;100075.81;;;5.55;100.00
75425;BME280;64007;50.632;13.700;2023-02-13T08:03:51;100080.03;;;5.62;100.00
75425;BME280;64007;50.632;13.700;2023-02-13T08:06:17;100076.78;;;5.84;100.00
75425;BME280;64007;50.632;13.700;2023-02-13T08:08:44;100083.66;;;5.91;100.00
75425;BME280;64007;50.632;13.700;2023-02-13T08:11:28;100087.22;;;5.88;100.00
75425;BME280;64007;50.632;13.700;2023-02-13T08:14:14;100075.03;;;6.15;100.00
75425;BME280;64007;50.632;13.700;2023-02-13T08:16:39;100079.72;;;6.34;100.00
75425;BME280;64007;50.632;13.700;2023-02-13T08:19:05;100083.75;;;6.17;100.00
75425;BME280;64007;50.632;13.700;2023-02-13T08:21:31;100074.44;;;6.06;100.00
75425;BME280;64007;50.632;13.700;2023-02-13T08:23:57;100069.06;;;6.09;100.00
75425;BME280;64007;50.632;13.700;2023-02-13T08:26:23;100069.34;;;6.27;100.00
75425;BME280;64007;50.632;13.700;2023-02-13T08:28:49;100063.69;;;6.40;100.00
75425;BME280;64007;50.632;13.700;2023-02-13T08:31:15;100078.09;;;6.29;100.00
75425;BME280;64007;50.632;13.700;2023-02-13T08:33:40;100069.34;;;6.27;100.00
75425;BME280;64007;50.632;13.700;2023-02-13T08:36:06;100062.97;;;6.35;100.00
75425;BME280;64007;50.632;13.700;2023-02-13T08:38:35;100074.09;;;6.72;100.00
75425;BME280;64007;50.632;13.700;2023-02-13T08:41:01;100067.91;;;6.73;100.00
75425;BME280;64007;50.632;13.700;2023-02-13T08:43:26;100084.25;;;6.58;100.00
75425;BME280;64007;50.632;13.700;2023-02-13T08:45:52;100072.06;;;6.54;100.00
75425;BME280;64007;50.632;13.700;2023-02-13T08:48:18;100085.91;;;6.62;100.00
75425;BME280;64007;50.632;13.700;2023-02-13T08:50:43;100084.63;;;6.74;100.00
75425;BME280;64007;50.632;13.700;2023-02-13T08:53:09;100089.75;;;6.78;100.00
75425;BME280;64007;50.632;13.700;2023-02-13T08:55:35;100092.25;;;6.84;100.00
75425;BME280;64007;50.632;13.700;2023-02-13T08:58:02;100095.59;;;6.89;100.00
75425;BME280;64007;50.632;13.700;2023-02-13T09:00:28;100087.31;;;7.00;100.00
75425;BME280;64007;50.632;13.700;2023-02-13T09:02:54;100097.03;;;7.26;100.00
75425;BME280;64007;50.632;13.700;2023-02-13T09:05:20;100091.88;;;7.21;100.00
75425;BME280;64007;50.632;13.700;2023-02-13T09:07:46;100085.41;;;7.04;100.00
75425;BME280;64007;50.632;13.700;2023-02-13T09:10:11;100079.25;;;7.03;100.00
75425;BME280;64007;50.632;13.700;2023-02-13T09:12:37;100077.88;;;7.18;100.00
75425;BME280;64007;50.632;13.700;2023-02-13T09:15:04;100076.66;;;7.28;100.00
75425;BME280;64007;50.632;13.700;2023-02-13T09:17:30;100081.75;;;7.34;100.00
75425;BME280;64007;50.632;13.700;2023-02-13T09:19:55;100078.06;;;7.38;100.00
75425;BME280;64007;50.632;13.700;2023-02-13T09:22:21;100083.25;;;7.41;100.00
75425;BME280;64007;50.632;13.700;2023-02-13T09:24:47;100093.84;;;7.41;100.00
75425;BME280;64007;50.632;13.700;2023-02-13T09:27:12;100088.66;;;7.38;100.00
75425;BME280;64007;50.632;13.700;2023-02-13T09:29:38;100086.16;;;7.59;100.00
75425;BME280;64007;50.632;13.700;2023-02-13T09:32:04;100084.41;;;7.82;100.00
75425;BME280;64007;50.632;13.700;2023-02-13T09:34:31;100080.66;;;7.65;100.00
75425;BME280;64007;50.632;13.700;2023-02-13T09:36:57;100085.84;;;7.68;100.00
75425;BME280;64007;50.632;13.700;2023-02-13T09:39:22;100080.44;;;7.71;100.00
75425;BME280;64007;50.632;13.700;2023-02-13T09:41:50;100087.94;;;7.83;100.00
75425;BME280;64007;50.632;13.700;2023-02-13T09:44:33;100095.16;;;8.03;100.00
75425;BME280;64007;50.632;13.700;2023-02-13T09:47:05;100093.44;;;8.00;100.00
75425;BME280;64007;50.632;13.700;2023-02-13T09:49:37;100086.66;;;7.93;100.00
75425;BME280;64007;50.632;13.700;2023-02-13T09:52:05;100093.31;;;8.05;100.00
75425;BME280;64007;50.632;13.700;2023-02-13T09:54:32;100103.94;;;8.27;100.00
75425;BME280;64007;50.632;13.700;2023-02-13T09:57:14;100099.69;;;8.23;100.00
75425;BME280;64007;50.632;13.700;2023-02-13T10:02:45;100091.41;;;8.55;100.00
75425;BME280;64007;50.632;13.700;2023-02-13T10:13:35;100099.75;;;8.90;100.00
75425;BME280;64007;50.632;13.700;2023-02-13T10:16:09;100100.28;;;8.98;100.00
75425;BME280;64007;50.632;13.700;2023-02-13T10:18:46;100096.56;;;9.02;100.00
75425;BME280;64007;50.632;13.700;2023-02-13T10:21:14;100092.59;;;9.12;100.00
75425;BME280;64007;50.632;13.700;2023-02-13T10:23:55;100097.03;;;9.33;100.00
75425;BME280;64007;50.632;13.700;2023-02-13T10:26:33;100096.50;;;9.46;92.60
75425;BME280;64007;50.632;13.700;2023-02-13T10:32:08;100093.69;;;9.28;96.66
75425;BME280;64007;50.632;13.700;2023-02-13T10:34:41;100078.03;;;9.22;96.57
75425;BME280;64007;50.632;13.700;2023-02-13T10:37:17;100079.22;;;9.35;94.09
75425;BME280;64007;50.632;13.700;2023-02-13T10:39:46;100086.41;;;9.33;94.34
75425;BME280;64007;50.632;13.700;2023-02-13T10:50:38;100081.75;;;9.59;99.09
75425;BME280;64007;50.632;13.700;2023-02-13T11:01:36;100075.03;;;10.10;86.37
75425;BME280;64007;50.632;13.700;2023-02-13T11:04:07;100071.66;;;10.06;87.30
75425;BME280;64007;50.632;13.700;2023-02-13T11:06:36;100078.19;;;10.18;89.54
75425;BME280;64007;50.632;13.700;2023-02-13T11:09:04;100073.63;;;10.21;98.18
75425;BME280;64007;50.632;13.700;2023-02-13T11:11:35;100065.88;;;10.35;96.72
75425;BME280;64007;50.632;13.700;2023-02-13T11:14:18;100062.06;;;10.60;83.47
75425;BME280;64007;50.632;13.700;2023-02-13T11:16:49;100061.19;;;10.59;86.65
75425;BME280;64007;50.632;13.700;2023-02-13T11:21:54;100053.09;;;10.80;95.21
75425;BME280;64007;50.632;13.700;2023-02-13T11:24:25;100049.75;;;10.93;96.23
75425;BME280;64007;50.632;13.700;2023-02-13T11:26:56;100051.78;;;11.06;83.36
75425;BME280;64007;50.632;13.700;2023-02-13T11:29:26;100049.38;;;11.01;78.70
75425;BME280;64007;50.632;13.700;2023-02-13T11:32:17;100048.28;;;11.05;88.31
75425;BME280;64007;50.632;13.700;2023-02-13T11:34:44;100044.66;;;11.06;78.22
75425;BME280;64007;50.632;13.700;2023-02-13T11:37:24;100043.56;;;10.93;77.58
75425;BME280;64007;50.632;13.700;2023-02-13T11:39:52;100042.91;;;10.71;78.72
75425;BME280;64007;50.632;13.700;2023-02-13T11:42:30;100037.25;;;10.59;78.67
75425;BME280;64007;50.632;13.700;2023-02-13T11:45:06;100043.97;;;10.49;81.70
75425;BME280;64007;50.632;13.700;2023-02-13T11:47:34;100041.72;;;10.40;89.31
75425;BME280;64007;50.632;13.700;2023-02-13T11:50:00;100031.16;;;10.39;89.91
75425;BME280;64007;50.632;13.700;2023-02-13T11:52:28;100033.88;;;10.37;86.46
75425;BME280;64007;50.632;13.700;2023-02-13T11:55:01;100035.59;;;10.38;88.77
75425;BME280;64007;50.632;13.700;2023-02-13T11:57:30;100030.50;;;10.33;91.76
75425;BME280;64007;50.632;13.700;2023-02-13T11:59:58;100032.59;;;10.27;93.01
75425;BME280;64007;50.632;13.700;2023-02-13T12:02:43;100024.78;;;10.24;91.14
75425;BME280;64007;50.632;13.700;2023-02-13T12:05:26;100022.25;;;10.21;92.29
75425;BME280;64007;50.632;13.700;2023-02-13T12:07:56;100012.41;;;10.23;93.67
75425;BME280;64007;50.632;13.700;2023-02-13T12:10:27;100015.56;;;10.31;91.28
75425;BME280;64007;50.632;13.700;2023-02-13T12:13:01;100010.88;;;10.36;90.55
75425;BME280;64007;50.632;13.700;2023-02-13T12:15:33;100015.56;;;10.50;88.98
75425;BME280;64007;50.632;13.700;2023-02-13T12:18:23;100017.59;;;10.81;92.37
75425;BME280;64007;50.632;13.700;2023-02-13T12:23:32;99994.72;;;11.11;84.48
75425;BME280;64007;50.632;13.700;2023-02-13T12:32:09;99996.00;;;11.87;74.52
75425;BME280;64007;50.632;13.700;2023-02-13T12:37:56;99981.22;;;11.98;77.38
75425;BME280;64007;50.632;13.700;2023-02-13T12:45:57;99977.53;;;12.93;68.67
75425;BME280;64007;50.632;13.700;2023-02-13T12:48:33;99973.34;;;12.89;63.85
75425;BME280;64007;50.632;13.700;2023-02-13T12:51:02;99976.06;;;12.58;70.96
75425;BME280;64007;50.632;13.700;2023-02-13T12:56:41;99978.16;;;12.05;72.99
75425;BME280;64007;50.632;13.700;2023-02-13T13:01:41;99970.41;;;12.32;74.77
75425;BME280;64007;50.632;13.700;2023-02-13T13:12:48;99964.13;;;12.79;69.47
75425;BME280;64007;50.632;13.700;2023-02-13T13:18:22;99973.75;;;12.36;68.43
75425;BME280;64007;50.632;13.700;2023-02-13T13:23:37;99970.41;;;12.32;73.75
75425;BME280;64007;50.632;13.700;2023-02-13T13:26:20;99963.75;;;12.39;70.72
75425;BME280;64007;50.632;13.700;2023-02-13T13:28:55;99964.88;;;12.35;69.74
75425;BME280;64007;50.632;13.700;2023-02-13T13:31:23;99964.22;;;12.16;69.82
75425;BME280;64007;50.632;13.700;2023-02-13T13:34:01;99970.41;;;12.01;71.92
75425;BME280;64007;50.632;13.700;2023-02-13T13:39:04;99959.22;;;11.78;73.44
75425;BME280;64007;50.632;13.700;2023-02-13T13:44:41;99964.69;;;11.75;72.94
75425;BME280;64007;50.632;13.700;2023-02-13T13:48:13;99961.56;;;11.67;74.16
75425;BME280;64007;50.632;13.700;2023-02-13T13:50:27;99946.41;;;11.52;72.23
75425;BME280;64007;50.632;13.700;2023-02-13T13:53:12;99956.28;;;11.50;75.01
75425;BME280;64007;50.632;13.700;2023-02-13T13:58:34;99949.88;;;12.03;73.36
75425;BME280;64007;50.632;13.700;2023-02-13T14:01:27;99958.28;;;12.11;71.52
75425;BME280;64007;50.632;13.700;2023-02-13T14:08:59;99934.25;;;13.02;68.03
75425;BME280;64007;50.632;13.700;2023-02-13T14:11:35;99940.34;;;13.34;66.37
75425;BME280;64007;50.632;13.700;2023-02-13T14:17:00;99942.16;;;13.76;63.31
75425;BME280;64007;50.632;13.700;2023-02-13T14:19:39;99948.44;;;14.04;62.29
75425;BME280;64007;50.632;13.700;2023-02-13T14:24:54;99949.97;;;14.08;61.47
75425;BME280;64007;50.632;13.700;2023-02-13T14:27:22;99949.09;;;14.34;61.06
75425;BME280;64007;50.632;13.700;2023-02-13T14:29:49;99950.94;;;14.48;60.35
75425;BME280;64007;50.632;13.700;2023-02-13T14:32:30;99956.06;;;14.51;60.67
75425;BME280;64007;50.632;13.700;2023-02-13T14:35:05;99952.69;;;14.62;60.10
75425;BME280;64007;50.632;13.700;2023-02-13T14:37:49;99943.59;;;14.77;58.65
75425;BME280;64007;50.632;13.700;2023-02-13T14:42:55;99944.22;;;15.08;57.64
75425;BME280;64007;50.632;13.700;2023-02-13T14:45:25;99952.81;;;15.25;56.76
75425;BME280;64007;50.632;13.700;2023-02-13T14:47:54;99960.31;;;15.33;56.40
75425;BME280;64007;50.632;13.700;2023-02-13T14:50:28;99948.75;;;15.45;55.69
75425;BME280;64007;50.632;13.700;2023-02-13T14:52:58;99955.38;;;15.52;56.10
75425;BME280;64007;50.632;13.700;2023-02-13T14:55:33;99943.16;;;15.48;54.93
75425;BME280;64007;50.632;13.700;2023-02-13T14:58:15;99947.69;;;15.22;53.65
75425;BME280;64007;50.632;13.700;2023-02-13T15:03:51;99934.56;;;14.92;55.89
75425;BME280;64007;50.632;13.700;2023-02-13T15:06:40;99929.81;;;14.83;56.46
75425;BME280;64007;50.632;13.700;2023-02-13T15:09:27;99928.91;;;14.70;57.42
75425;BME280;64007;50.632;13.700;2023-02-13T15:11:56;99923.53;;;14.57;56.74